sensor_id;sensor_type;location;lat;lon;timestamp;pressure;altitude;pressure_sealevel;temperature;humidity
4346;BME280;2186;49.866;7.986;2023-02-14T00:02:24;102248.59;;;-0.27;100.00
4346;BME280;2186;49.866;7.986;2023-02-14T00:04:51;102245.72;;;-0.32;100.00
4346;BME280;2186;49.866;7.986;2023-02-14T00:07:17;102247.31;;;-0.35;100.00
4346;BME280;2186;49.866;7.986;2023-02-14T00:09:44;102247.19;;;-0.38;100.00
4346;BME280;2186;49.866;7.986;2023-02-14T00:12:10;102239.53;;;-0.34;100.00
4346;BME280;2186;49.866;7.986;2023-02-14T00:14:37;102238.44;;;-0.39;100.00
4346;BME280;2186;49.866;7.986;2023-02-14T00:17:21;102242.41;;;-0.47;100.00
4346;BME280;2186;49.866;7.986;2023-02-14T00:19:48;102241.94;;;-0.56;100.00
4346;BME280;2186;49.866;7.986;2023-02-14T00:22:14;102242.19;;;-0.51;100.00
4346;BME280;2186;49.866;7.986;2023-02-14T00:24:41;102239.84;;;-0.45;100.00
4346;BME280;2186;49.866;7.986;2023-02-14T00:27:07;102234.34;;;-0.51;100.00
4346;BME280;2186;49.866;7.986;2023-02-14T00:29:33;102244.38;;;-0.78;100.00
4346;BME280;2186;49.866;7.986;2023-02-14T00:32:00;102241.81;;;-0.77;100.00
4346;BME280;2186;49.866;7.986;2023-02-14T00:34:27;102236.91;;;-0.53;100.00
4346;BME280;2186;49.866;7.986;2023-02-14T00:36:54;102244.66;;;-0.72;100.00
4346;BME280;2186;49.866;7.986;2023-02-14T00:39:21;102239.81;;;-0.65;100.00
4346;BME280;2186;49.866;7.986;2023-02-14T00:41:47;102245.94;;;-0.82;100.00
4346;BME280;2186;49.866;7.986;2023-02-14T00:44:14;102242.19;;;-0.69;100.00
4346;BME280;2186;49.866;7.986;2023-02-14T00:46:40;102246.97;;;-0.78;100.00
4346;BME280;2186;49.866;7.986;2023-02-14T00:49:07;102244.97;;;-0.66;100.00
4346;BME280;2186;49.866;7.986;2023-02-14T00:51:33;102240.38;;;-0.70;100.00
4346;BME280;2186;49.866;7.986;2023-02-14T00:54:00;102235.84;;;-0.74;100.00
4346;BME280;2186;49.866;7.986;2023-02-14T00:56:27;102242.72;;;-0.76;100.00
4346;BME280;2186;49.866;7.986;2023-02-14T00:58:53;102242.13;;;-0.88;100.00
4346;BME280;2186;49.866;7.986;2023-02-14T01:01:20;102240.94;;;-0.95;100.00
4346;BME280;2186;49.866;7.986;2023-02-14T01:03:47;102244.72;;;-0.88;100.00
4346;BME280;2186;49.866;7.986;2023-02-14T01:06:13;102237.56;;;-0.93;100.00
4346;BME280;2186;49.866;7.986;2023-02-14T01:08:40;102237.56;;;-0.93;100.00
4346;BME280;2186;49.866;7.986;2023-02-14T01:11:12;102241.97;;;-0.92;100.00
4346;BME280;2186;49.866;7.986;2023-02-14T01:13:39;102242.09;;;-1.06;100.00
4346;BME280;2186;49.866;7.986;2023-02-14T01:16:09;102243.66;;;-1.10;100.00
4346;BME280;2186;49.866;7.986;2023-02-14T01:18:36;102243.81;;;-1.07;100.00
4346;BME280;2186;49.866;7.986;2023-02-14T01:21:19;102237.03;;;-1.21;100.00
4346;BME280;2186;49.866;7.986;2023-02-14T01:23:48;102238.72;;;-1.22;100.00
4346;BME280;2186;49.866;7.986;2023-02-14T01:26:16;102239.44;;;-1.24;100.00
4346;BME280;2186;49.866;7.986;2023-02-14T01:28:43;102237.03;;;-1.21;100.00
4346;BME280;2186;49.866;7.986;2023-02-14T01:31:11;102236.06;;;-1.23;100.00
4346;BME280;2186;49.866;7.986;2023-02-14T01:33:39;102237.16;;;-1.18;100.00
4346;BME280;2186;49.866;7.986;2023-02-14T01:36:06;102230.72;;;-1.25;100.00
4346;BME280;2186;49.866;7.986;2023-02-14T01:38:33;102236.06;;;-1.23;100.00
4346;BME280;2186;49.866;7.986;2023-02-14T01:40:59;102241.84;;;-1.11;100.00
4346;BME280;2186;49.866;7.986;2023-02-14T01:43:26;102232.84;;;-1.17;100.00
4346;BME280;2186;49.866;7.986;2023-02-14T01:45:53;102231.06;;;-1.18;100.00
4346;BME280;2186;49.866;7.986;2023-02-14T01:48:20;102234.97;;;-1.27;100.00
4346;BME280;2186;49.866;7.986;2023-02-14T01:50:48;102235.66;;;-1.31;100.00
4346;BME280;2186;49.866;7.986;2023-02-14T01:53:23;102248.28;;;-1.22;100.00
4346;BME280;2186;49.866;7.986;2023-02-14T01:55:58;102247.88;;;-1.30;100.00
4346;BME280;2186;49.866;7.986;2023-02-14T01:58:29;102248.84;;;-1.28;100.00
4346;BME280;2186;49.866;7.986;2023-02-14T02:01:01;102252.19;;;-1.30;100.00
4346;BME280;2186;49.866;7.986;2023-02-14T02:03:33;102246.69;;;-1.36;100.00
4346;BME280;2186;49.866;7.986;2023-02-14T02:06:18;102247.88;;;-1.30;100.00
4346;BME280;2186;49.866;7.986;2023-02-14T02:09:15;102242.34;;;-1.36;100.00
4346;BME280;2186;49.866;7.986;2023-02-14T02:11:43;102243.13;;;-1.21;100.00
4346;BME280;2186;49.866;7.986;2023-02-14T02:14:15;102247.28;;;-1.24;100.00
4346;BME280;2186;49.866;7.986;2023-02-14T02:27:49;102233.56;;;-1.54;100.00
4346;BME280;2186;49.866;7.986;2023-02-14T02:36:24;102237.25;;;-1.67;100.00
4346;BME280;2186;49.866;7.986;2023-02-14T02:39:09;102239.75;;;-1.52;100.00
4346;BME280;2186;49.866;7.986;2023-02-14T02:47:27;102241.47;;;-1.36;100.00
4346;BME280;2186;49.866;7.986;2023-02-14T02:53:47;102232.00;;;-1.34;100.00
4346;BME280;2186;49.866;7.986;2023-02-14T02:56:28;102233.03;;;-1.31;100.00
4346;BME280;2186;49.866;7.986;2023-02-14T02:59:22;102235.13;;;-1.24;100.00
4346;BME280;2186;49.866;7.986;2023-02-14T03:01:55;102234.03;;;-1.11;100.00
4346;BME280;2186;49.866;7.986;2023-02-14T03:04:23;102238.81;;;-1.20;100.00
4346;BME280;2186;49.866;7.986;2023-02-14T03:07:09;102231.59;;;-1.08;100.00
4346;BME280;2186;49.866;7.986;2023-02-14T03:09:57;102225.03;;;-1.00;100.00
4346;BME280;2186;49.866;7.986;2023-02-14T03:15:23;102229.06;;;-0.88;100.00
4346;BME280;2186;49.866;7.986;2023-02-14T03:18:10;102231.81;;;-0.85;100.00
4346;BME280;2186;49.866;7.986;2023-02-14T03:21:06;102233.25;;;-0.74;100.00
4346;BME280;2186;49.866;7.986;2023-02-14T03:23:46;102224.97;;;-0.66;100.00
4346;BME280;2186;49.866;7.986;2023-02-14T03:26:27;102231.97;;;-0.65;100.00
4346;BME280;2186;49.866;7.986;2023-02-14T03:29:11;102231.38;;;-0.59;100.00
4346;BME280;2186;49.866;7.986;2023-02-14T03:32:09;102226.53;;;-0.51;100.00
4346;BME280;2186;49.866;7.986;2023-02-14T03:34:59;102234.72;;;-0.62;100.00
4346;BME280;2186;49.866;7.986;2023-02-14T03:37:33;102226.81;;;-0.63;100.00
4346;BME280;2186;49.866;7.986;2023-02-14T03:40:05;102235.91;;;-0.55;100.00
4346;BME280;2186;49.866;7.986;2023-02-14T03:42:43;102228.25;;;-0.52;100.00
4346;BME280;2186;49.866;7.986;2023-02-14T03:45:22;102242.63;;;-0.60;100.00
4346;BME280;2186;49.866;7.986;2023-02-14T03:47:54;102237.88;;;-0.51;100.00
4346;BME280;2186;49.866;7.986;2023-02-14T03:50:21;102234.22;;;-0.54;100.00
4346;BME280;2186;49.866;7.986;2023-02-14T03:52:50;102232.41;;;-0.55;100.00
4346;BME280;2186;49.866;7.986;2023-02-14T03:55:27;102235.91;;;-0.55;100.00
4346;BME280;2186;49.866;7.986;2023-02-14T03:58:05;102237.03;;;-0.50;100.00
4346;BME280;2186;49.866;7.986;2023-02-14T04:00:36;102234.69;;;-0.44;100.00
4346;BME280;2186;49.866;7.986;2023-02-14T04:03:08;102243.97;;;-0.50;100.00
4346;BME280;2186;49.866;7.986;2023-02-14T04:05:37;102237.53;;;-0.57;100.00
4346;BME280;2186;49.866;7.986;2023-02-14T04:08:09;102240.91;;;-0.60;100.00
4346;BME280;2186;49.866;7.986;2023-02-14T04:10:37;102243.53;;;-0.60;100.00
4346;BME280;2186;49.866;7.986;2023-02-14T04:13:05;102247.16;;;-0.56;100.00
4346;BME280;2186;49.866;7.986;2023-02-14T04:15:31;102248.06;;;-0.55;100.00
4346;BME280;2186;49.866;7.986;2023-02-14T04:17:58;102246.78;;;-0.46;100.00
4346;BME280;2186;49.866;7.986;2023-02-14T04:20:43;102236.50;;;-0.43;100.00
4346;BME280;2186;49.866;7.986;2023-02-14T04:23:09;102241.00;;;-0.40;100.00
4346;BME280;2186;49.866;7.986;2023-02-14T04:25:36;102242.91;;;-0.36;100.00
4346;BME280;2186;49.866;7.986;2023-02-14T04:28:05;102242.16;;;-0.34;100.00
4346;BME280;2186;49.866;7.986;2023-02-14T04:30:31;102242.84;;;-0.38;100.00
4346;BME280;2186;49.866;7.986;2023-02-14T04:32:58;102246.50;;;-0.34;100.00
4346;BME280;2186;49.866;7.986;2023-02-14T04:35:24;102251.19;;;-0.45;100.00
4346;BME280;2186;49.866;7.986;2023-02-14T04:37:50;102255.66;;;-0.42;100.00
4346;BME280;2186;49.866;7.986;2023-02-14T04:40:17;102247.41;;;-0.51;100.00
4346;BME280;2186;49.866;7.986;2023-02-14T04:42:44;102248.75;;;-0.60;100.00
4346;BME280;2186;49.866;7.986;2023-02-14T04:45:11;102247.00;;;-0.41;100.00
4346;BME280;2186;49.866;7.986;2023-02-14T04:47:38;102247.81;;;-0.42;100.00
4346;BME280;2186;49.866;7.986;2023-02-14T04:50:05;102252.78;;;-0.66;100.00
4346;BME280;2186;49.866;7.986;2023-02-14T04:52:32;102249.97;;;-0.53;100.00
4346;BME280;2186;49.866;7.986;2023-02-14T04:54:58;102254.13;;;-0.56;100.00
4346;BME280;2186;49.866;7.986;2023-02-14T04:57:25;102239.22;;;-0.77;100.00
4346;BME280;2186;49.866;7.986;2023-02-14T04:59:51;102249.97;;;-0.53;100.00
4346;BME280;2186;49.866;7.986;2023-02-14T05:02:17;102245.53;;;-0.72;100.00
4346;BME280;2186;49.866;7.986;2023-02-14T05:04:44;102241.38;;;-0.68;100.00
4346;BME280;2186;49.866;7.986;2023-02-14T05:07:11;102237.78;;;-0.70;100.00
4346;BME280;2186;49.866;7.986;2023-02-14T05:09:37;102232.91;;;-0.45;100.00
4346;BME280;2186;49.866;7.986;2023-02-14T05:12:04;102232.03;;;-0.45;100.00
4346;BME280;2186;49.866;7.986;2023-02-14T05:14:30;102233.22;;;-0.56;100.00
4346;BME280;2186;49.866;7.986;2023-02-14T05:16:56;102230.16;;;-0.48;100.00
4346;BME280;2186;49.866;7.986;2023-02-14T05:19:23;102230.03;;;-0.51;100.00
4346;BME280;2186;49.866;7.986;2023-02-14T05:21:50;102236.91;;;-0.53;100.00
4346;BME280;2186;49.866;7.986;2023-02-14T05:24:16;102235.00;;;-0.55;100.00
4346;BME280;2186;49.866;7.986;2023-02-14T05:26:43;102232.94;;;-0.63;100.00
4346;BME280;2186;49.866;7.986;2023-02-14T05:29:09;102228.19;;;-0.34;100.00
4346;BME280;2186;49.866;7.986;2023-02-14T05:31:36;102230.00;;;-0.33;100.00
4346;BME280;2186;49.866;7.986;2023-02-14T05:34:02;102231.91;;;-0.66;100.00
4346;BME280;2186;49.866;7.986;2023-02-14T05:36:29;102234.22;;;-0.72;100.00
4346;BME280;2186;49.866;7.986;2023-02-14T05:38:55;102228.25;;;-0.87;100.00
4346;BME280;2186;49.866;7.986;2023-02-14T05:41:22;102225.63;;;-0.70;100.00
4346;BME280;2186;49.866;7.986;2023-02-14T05:43:48;102221.06;;;-0.56;100.00
4346;BME280;2186;49.866;7.986;2023-02-14T05:46:15;102231.81;;;-0.50;100.00
4346;BME280;2186;49.866;7.986;2023-02-14T05:48:41;102227.56;;;-0.48;100.00
4346;BME280;2186;49.866;7.986;2023-02-14T05:51:09;102228.44;;;-0.47;100.00
4346;BME280;2186;49.866;7.986;2023-02-14T05:53:36;102222.94;;;-0.53;100.00
4346;BME280;2186;49.866;7.986;2023-02-14T05:56:03;102230.19;;;-0.28;100.00
4346;BME280;2186;49.866;7.986;2023-02-14T05:58:30;102239.34;;;-0.56;100.00
4346;BME280;2186;49.866;7.986;2023-02-14T06:00:57;102238.09;;;-0.64;100.00
4346;BME280;2186;49.866;7.986;2023-02-14T06:03:24;102241.66;;;-0.62;100.00
4346;BME280;2186;49.866;7.986;2023-02-14T06:05:51;102238.97;;;-0.46;100.00
4346;BME280;2186;49.866;7.986;2023-02-14T06:08:17;102231.34;;;-0.41;100.00
4346;BME280;2186;49.866;7.986;2023-02-14T06:10:45;102235.19;;;-0.52;100.00
4346;BME280;2186;49.866;7.986;2023-02-14T06:13:11;102242.78;;;-0.57;100.00
4346;BME280;2186;49.866;7.986;2023-02-14T06:15:37;102242.06;;;-0.54;100.00
4346;BME280;2186;49.866;7.986;2023-02-14T06:18:04;102236.72;;;-0.56;100.00
4346;BME280;2186;49.866;7.986;2023-02-14T06:20:31;102236.91;;;-0.53;100.00
4346;BME280;2186;49.866;7.986;2023-02-14T06:22:58;102229.13;;;-0.51;100.00
4346;BME280;2186;49.866;7.986;2023-02-14T06:25:24;102244.25;;;-0.44;100.00
4346;BME280;2186;49.866;7.986;2023-02-14T06:27:55;102245.47;;;-0.38;100.00
4346;BME280;2186;49.866;7.986;2023-02-14T06:30:22;102244.91;;;-0.31;100.00
4346;BME280;2186;49.866;7.986;2023-02-14T06:32:48;102249.16;;;-0.33;100.00
4346;BME280;2186;49.866;7.986;2023-02-14T06:35:16;102252.53;;;-0.35;100.00
4346;BME280;2186;49.866;7.986;2023-02-14T06:37:43;102263.06;;;-0.34;100.00
4346;BME280;2186;49.866;7.986;2023-02-14T06:40:11;102262.59;;;-0.25;100.00
4346;BME280;2186;49.866;7.986;2023-02-14T06:42:38;102265.03;;;-0.10;100.00
4346;BME280;2186;49.866;7.986;2023-02-14T06:45:05;102267.28;;;-0.18;100.00
4346;BME280;2186;49.866;7.986;2023-02-14T06:47:31;102263.56;;;-0.23;100.00
4346;BME280;2186;49.866;7.986;2023-02-14T06:50:00;102270.38;;;-0.26;100.00
4346;BME280;2186;49.866;7.986;2023-02-14T06:52:30;102269.63;;;-0.42;100.00
4346;BME280;2186;49.866;7.986;2023-02-14T06:54:57;102277.09;;;-0.32;100.00
4346;BME280;2186;49.866;7.986;2023-02-14T06:57:23;102262.09;;;-0.36;100.00
4346;BME280;2186;49.866;7.986;2023-02-14T06:59:49;102267.84;;;-0.25;100.00
4346;BME280;2186;49.866;7.986;2023-02-14T07:02:16;102279.34;;;-0.39;100.00
4346;BME280;2186;49.866;7.986;2023-02-14T07:04:42;102271.25;;;-0.44;100.00
4346;BME280;2186;49.866;7.986;2023-02-14T07:07:09;102269.63;;;-0.24;100.00
4346;BME280;2186;49.866;7.986;2023-02-14T07:09:35;102273.72;;;-0.29;100.00
4346;BME280;2186;49.866;7.986;2023-02-14T07:12:02;102271.09;;;-0.29;100.00
4346;BME280;2186;49.866;7.986;2023-02-14T07:14:28;102269.09;;;-0.35;100.00
4346;BME280;2186;49.866;7.986;2023-02-14T07:16:54;102271.69;;;-0.17;100.00
4346;BME280;2186;49.866;7.986;2023-02-14T07:19:21;102272.81;;;-0.30;100.00
4346;BME280;2186;49.866;7.986;2023-02-14T07:21:47;102271.69;;;-0.17;100.00
4346;BME280;2186;49.866;7.986;2023-02-14T07:24:14;102261.66;;;-0.27;100.00
4346;BME280;2186;49.866;7.986;2023-02-14T07:26:40;102271.16;;;-0.27;100.00
4346;BME280;2186;49.866;7.986;2023-02-14T07:29:07;102260.06;;;-0.23;100.00
4346;BME280;2186;49.866;7.986;2023-02-14T07:31:33;102265.34;;;-0.22;100.00
4346;BME280;2186;49.866;7.986;2023-02-14T07:34:00;102276.09;;;-0.16;100.00
4346;BME280;2186;49.866;7.986;2023-02-14T07:36:27;102262.56;;;-0.07;100.00
4346;BME280;2186;49.866;7.986;2023-02-14T07:38:54;102266.19;;;-0.04;100.00
4346;BME280;2186;49.866;7.986;2023-02-14T07:41:22;102270.16;;;0.06;100.00
4346;BME280;2186;49.866;7.986;2023-02-14T07:43:48;102271.09;;;0.08;100.00
4346;BME280;2186;49.866;7.986;2023-02-14T07:46:15;102276.25;;;0.07;100.00
4346;BME280;2186;49.866;7.986;2023-02-14T07:48:43;102285.75;;;0.24;100.00
4346;BME280;2186;49.866;7.986;2023-02-14T07:51:09;102268.91;;;0.37;100.00
4346;BME280;2186;49.866;7.986;2023-02-14T07:53:36;102273.59;;;0.44;100.00
4346;BME280;2186;49.866;7.986;2023-02-14T07:56:03;102278.31;;;0.52;100.00
4346;BME280;2186;49.866;7.986;2023-02-14T07:58:29;102280.34;;;0.58;100.00
4346;BME280;2186;49.866;7.986;2023-02-14T08:00:55;102282.38;;;0.65;100.00
4346;BME280;2186;49.866;7.986;2023-02-14T08:03:22;102280.81;;;0.49;100.00
4346;BME280;2186;49.866;7.986;2023-02-14T08:05:49;102276.53;;;0.51;100.00
4346;BME280;2186;49.866;7.986;2023-02-14T08:08:27;102280.50;;;0.42;100.00
4346;BME280;2186;49.866;7.986;2023-02-14T08:10:54;102280.88;;;0.51;100.00
4346;BME280;2186;49.866;7.986;2023-02-14T08:13:21;102278.19;;;0.49;100.00
4346;BME280;2186;49.866;7.986;2023-02-14T08:15:48;102279.22;;;0.53;100.00
4346;BME280;2186;49.866;7.986;2023-02-14T08:18:31;102276.91;;;0.59;100.00
4346;BME280;2186;49.866;7.986;2023-02-14T08:20:59;102278.09;;;0.67;100.00
4346;BME280;2186;49.866;7.986;2023-02-14T08:23:26;102279.53;;;0.80;100.00
4346;BME280;2186;49.866;7.986;2023-02-14T08:25:52;102278.50;;;0.55;100.00
4346;BME280;2186;49.866;7.986;2023-02-14T08:28:19;102276.97;;;0.61;100.00
4346;BME280;2186;49.866;7.986;2023-02-14T08:30:48;102279.16;;;0.71;100.00
4346;BME280;2186;49.866;7.986;2023-02-14T08:33:15;102273.69;;;0.85;100.00
4346;BME280;2186;49.866;7.986;2023-02-14T08:35:42;102276.25;;;0.84;100.00
4346;BME280;2186;49.866;7.986;2023-02-14T08:38:08;102276.31;;;0.85;100.00
4346;BME280;2186;49.866;7.986;2023-02-14T08:40:35;102274.06;;;0.95;100.00
4346;BME280;2186;49.866;7.986;2023-02-14T08:43:06;102284.28;;;1.09;100.00
4346;BME280;2186;49.866;7.986;2023-02-14T08:45:33;102274.63;;;0.87;100.00
4346;BME280;2186;49.866;7.986;2023-02-14T08:48:01;102278.75;;;1.02;100.00
4346;BME280;2186;49.866;7.986;2023-02-14T08:50:28;102281.91;;;0.95;100.00
4346;BME280;2186;49.866;7.986;2023-02-14T08:52:54;102285.63;;;1.21;100.00
4346;BME280;2186;49.866;7.986;2023-02-14T08:55:21;102281.34;;;1.23;100.00
4346;BME280;2186;49.866;7.986;2023-02-14T08:57:47;102286.13;;;1.54;100.00
4346;BME280;2186;49.866;7.986;2023-02-14T09:00:14;102275.16;;;1.41;100.00
4346;BME280;2186;49.866;7.986;2023-02-14T09:02:41;102276.75;;;1.38;100.00
4346;BME280;2186;49.866;7.986;2023-02-14T09:05:07;102284.34;;;1.53;100.00
4346;BME280;2186;49.866;7.986;2023-02-14T09:07:36;102286.75;;;1.48;100.00
4346;BME280;2186;49.866;7.986;2023-02-14T09:10:03;102297.28;;;1.70;100.00
4346;BME280;2186;49.866;7.986;2023-02-14T09:12:29;102283.03;;;1.64;100.00
4346;BME280;2186;49.866;7.986;2023-02-14T09:14:55;102277.22;;;1.71;100.00
4346;BME280;2186;49.866;7.986;2023-02-14T09:17:22;102273.97;;;1.78;100.00
4346;BME280;2186;49.866;7.986;2023-02-14T09:19:48;102274.53;;;1.69;100.00
4346;BME280;2186;49.866;7.986;2023-02-14T09:22:17;102284.19;;;1.70;100.00
4346;BME280;2186;49.866;7.986;2023-02-14T09:24:44;102279.81;;;1.71;100.00
4346;BME280;2186;49.866;7.986;2023-02-14T09:27:10;102276.97;;;1.87;100.00
4346;BME280;2186;49.866;7.986;2023-02-14T09:29:37;102276.19;;;1.90;100.00
4346;BME280;2186;49.866;7.986;2023-02-14T09:32:03;102276.53;;;1.99;100.00
4346;BME280;2186;49.866;7.986;2023-02-14T09:34:32;102281.47;;;2.36;100.00
4346;BME280;2186;49.866;7.986;2023-02-14T09:37:18;102270.56;;;2.49;100.00
4346;BME280;2186;49.866;7.986;2023-02-14T09:39:44;102270.06;;;2.35;100.00
4346;BME280;2186;49.866;7.986;2023-02-14T09:42:32;102266.88;;;2.20;100.00
4346;BME280;2186;49.866;7.986;2023-02-14T09:45:08;102264.19;;;2.19;100.00
4346;BME280;2186;49.866;7.986;2023-02-14T09:47:56;102267.69;;;2.19;100.00
4346;BME280;2186;49.866;7.986;2023-02-14T09:53:30;102257.81;;;2.60;100.00
4346;BME280;2186;49.866;7.986;2023-02-14T09:56:05;102258.69;;;2.35;100.00
4346;BME280;2186;49.866;7.986;2023-02-14T10:01:35;102259.69;;;2.88;100.00
4346;BME280;2186;49.866;7.986;2023-02-14T10:04:15;102259.81;;;2.67;100.00
4346;BME280;2186;49.866;7.986;2023-02-14T10:12:40;102256.91;;;2.83;100.00
4346;BME280;2186;49.866;7.986;2023-02-14T10:15:14;102251.06;;;2.66;100.00
4346;BME280;2186;49.866;7.986;2023-02-14T10:20:21;102257.44;;;2.49;100.00
4346;BME280;2186;49.866;7.986;2023-02-14T10:23:09;102248.41;;;2.41;100.00
4346;BME280;2186;49.866;7.986;2023-02-14T10:25:50;102250.88;;;2.36;100.00
4346;BME280;2186;49.866;7.986;2023-02-14T10:28:28;102244.19;;;2.46;100.00
4346;BME280;2186;49.866;7.986;2023-02-14T10:31:13;102250.56;;;2.53;100.00
4346;BME280;2186;49.866;7.986;2023-02-14T10:33:49;102249.56;;;2.49;100.00
4346;BME280;2186;49.866;7.986;2023-02-14T10:39:42;102245.03;;;2.69;100.00
4346;BME280;2186;49.866;7.986;2023-02-14T10:42:27;102254.66;;;2.94;100.00
4346;BME280;2186;49.866;7.986;2023-02-14T10:45:22;102244.09;;;2.43;100.00
4346;BME280;2186;49.866;7.986;2023-02-14T10:48:00;102241.66;;;2.48;100.00
4346;BME280;2186;49.866;7.986;2023-02-14T10:50:38;102238.28;;;2.28;100.00
4346;BME280;2186;49.866;7.986;2023-02-14T10:53:41;102240.28;;;2.59;100.00
4346;BME280;2186;49.866;7.986;2023-02-14T10:56:34;102230.25;;;2.47;100.00
4346;BME280;2186;49.866;7.986;2023-02-14T10:59:13;102221.13;;;2.87;100.00
4346;BME280;2186;49.866;7.986;2023-02-14T11:01:44;102218.34;;;2.82;100.00
4346;BME280;2186;49.866;7.986;2023-02-14T11:04:14;102209.28;;;3.00;100.00
4346;BME280;2186;49.866;7.986;2023-02-14T11:06:42;102216.56;;;3.07;100.00
4346;BME280;2186;49.866;7.986;2023-02-14T11:09:09;102211.28;;;3.07;100.00
4346;BME280;2186;49.866;7.986;2023-02-14T11:11:42;102215.34;;;2.97;100.00
4346;BME280;2186;49.866;7.986;2023-02-14T11:14:22;102201.72;;;3.09;100.00
4346;BME280;2186;49.866;7.986;2023-02-14T11:16:49;102201.28;;;3.22;100.00
4346;BME280;2186;49.866;7.986;2023-02-14T11:21:47;102196.06;;;2.71;100.00
4346;BME280;2186;49.866;7.986;2023-02-14T11:27:02;102192.50;;;2.69;100.00
4346;BME280;2186;49.866;7.986;2023-02-14T11:29:50;102195.84;;;2.89;100.00
4346;BME280;2186;49.866;7.986;2023-02-14T11:32:24;102196.53;;;2.85;100.00
4346;BME280;2186;49.866;7.986;2023-02-14T11:37:29;102181.44;;;2.78;100.00
4346;BME280;2186;49.866;7.986;2023-02-14T11:39:58;102188.16;;;2.70;100.00
4346;BME280;2186;49.866;7.986;2023-02-14T11:42:41;102178.81;;;2.78;100.00
4346;BME280;2186;49.866;7.986;2023-02-14T11:51:10;102178.28;;;2.88;100.00
4346;BME280;2186;49.866;7.986;2023-02-14T11:53:45;102164.47;;;2.68;100.00
4346;BME280;2186;49.866;7.986;2023-02-14T11:56:14;102165.88;;;2.58;100.00
4346;BME280;2186;49.866;7.986;2023-02-14T11:59:00;102159.78;;;2.59;100.00
4346;BME280;2186;49.866;7.986;2023-02-14T12:01:30;102164.56;;;2.46;100.00
4346;BME280;2186;49.866;7.986;2023-02-14T12:04:10;102167.00;;;2.40;100.00
4346;BME280;2186;49.866;7.986;2023-02-14T12:06:38;102161.72;;;2.63;100.00
4346;BME280;2186;49.866;7.986;2023-02-14T12:09:11;102159.13;;;2.90;100.00
4346;BME280;2186;49.866;7.986;2023-02-14T12:11:38;102161.56;;;2.86;100.00
4346;BME280;2186;49.866;7.986;2023-02-14T12:14:19;102153.72;;;3.14;100.00
4346;BME280;2186;49.866;7.986;2023-02-14T12:17:02;102141.91;;;3.00;100.00
4346;BME280;2186;49.866;7.986;2023-02-14T12:20:06;102137.91;;;3.13;100.00
4346;BME280;2186;49.866;7.986;2023-02-14T12:22:57;102148.63;;;3.19;100.00
4346;BME280;2186;49.866;7.986;2023-02-14T12:25:41;102141.75;;;3.22;100.00
4346;BME280;2186;49.866;7.986;2023-02-14T12:28:12;102139.16;;;3.24;100.00
4346;BME280;2186;49.866;7.986;2023-02-14T12:30:41;102135.53;;;2.92;100.00
4346;BME280;2186;49.866;7.986;2023-02-14T12:33:18;102139.38;;;2.76;100.00
4346;BME280;2186;49.866;7.986;2023-02-14T12:36:04;102126.97;;;2.99;100.00
4346;BME280;2186;49.866;7.986;2023-02-14T12:38:49;102116.47;;;2.99;100.00
4346;BME280;2186;49.866;7.986;2023-02-14T12:41:28;102125.19;;;2.98;100.00
4346;BME280;2186;49.866;7.986;2023-02-14T12:49:21;102115.38;;;3.48;100.00
4346;BME280;2186;49.866;7.986;2023-02-14T13:00:23;102100.00;;;3.62;100.00
4346;BME280;2186;49.866;7.986;2023-02-14T13:05:57;102097.09;;;3.52;100.00
4346;BME280;2186;49.866;7.986;2023-02-14T13:08:52;102095.13;;;3.15;100.00
4346;BME280;2186;49.866;7.986;2023-02-14T13:16:58;102085.09;;;2.48;100.00
4346;BME280;2186;49.866;7.986;2023-02-14T13:22:19;102082.19;;;2.41;100.00
4346;BME280;2186;49.866;7.986;2023-02-14T13:24:50;102076.78;;;2.61;100.00
4346;BME280;2186;49.866;7.986;2023-02-14T13:27:20;102075.13;;;2.92;100.00
4346;BME280;2186;49.866;7.986;2023-02-14T13:29:50;102076.41;;;3.35;100.00
4346;BME280;2186;49.866;7.986;2023-02-14T13:32:21;102073.50;;;3.25;100.00
4346;BME280;2186;49.866;7.986;2023-02-14T13:34:49;102068.81;;;3.44;100.00
4346;BME280;2186;49.866;7.986;2023-02-14T13:37:18;102063.56;;;3.44;100.00
4346;BME280;2186;49.866;7.986;2023-02-14T13:48:10;102063.59;;;3.15;100.00
4346;BME280;2186;49.866;7.986;2023-02-14T13:53:11;102055.31;;;3.32;100.00
4346;BME280;2186;49.866;7.986;2023-02-14T13:55:42;102048.91;;;3.53;100.00
4346;BME280;2186;49.866;7.986;2023-02-14T13:58:16;102050.94;;;3.62;100.00
4346;BME280;2186;49.866;7.986;2023-02-14T14:00:45;102052.81;;;3.68;100.00
4346;BME280;2186;49.866;7.986;2023-02-14T14:05:45;102049.38;;;3.39;100.00
4346;BME280;2186;49.866;7.986;2023-02-14T14:24:37;102044.88;;;3.35;100.00
4346;BME280;2186;49.866;7.986;2023-02-14T14:27:19;102039.78;;;3.71;100.00
4346;BME280;2186;49.866;7.986;2023-02-14T14:37:23;102036.34;;;3.13;100.00
4346;BME280;2186;49.866;7.986;2023-02-14T14:39:58;102037.19;;;3.12;100.00
4346;BME280;2186;49.866;7.986;2023-02-14T14:42:28;102034.16;;;2.98;100.00
4346;BME280;2186;49.866;7.986;2023-02-14T14:44:58;102036.66;;;2.94;100.00
4346;BME280;2186;49.866;7.986;2023-02-14T14:47:33;102028.75;;;3.22;100.00
4346;BME280;2186;49.866;7.986;2023-02-14T14:50:07;102027.63;;;3.14;100.00
4346;BME280;2186;49.866;7.986;2023-02-14T14:52:39;102023.53;;;3.24;100.00
4346;BME280;2186;49.866;7.986;2023-02-14T14:55:08;102030.00;;;3.05;100.00
4346;BME280;2186;49.866;7.986;2023-02-14T14:57:48;102028.59;;;3.16;100.00
4346;BME280;2186;49.866;7.986;2023-02-14T15:03:06;102033.16;;;3.23;100.00
4346;BME280;2186;49.866;7.986;2023-02-14T15:05:41;102032.41;;;3.27;100.00
4346;BME280;2186;49.866;7.986;2023-02-14T15:10:53;102027.50;;;3.10;100.00
4346;BME280;2186;49.866;7.986;2023-02-14T15:13:45;102022.44;;;3.16;100.00
4346;BME280;2186;49.866;7.986;2023-02-14T15:18:47;102005.84;;;3.17;100.00
4346;BME280;2186;49.866;7.986;2023-02-14T15:21:14;102007.81;;;3.25;100.00
4346;BME280;2186;49.866;7.986;2023-02-14T15:23:42;102011.28;;;3.24;100.00
4346;BME280;2186;49.866;7.986;2023-02-14T15:26:16;102007.47;;;3.43;100.00
4346;BME280;2186;49.866;7.986;2023-02-14T15:28:44;102008.38;;;3.44;100.00
4346;BME280;2186;49.866;7.986;2023-02-14T15:31:18;102008.88;;;3.31;100.00
4346;BME280;2186;49.866;7.986;2023-02-14T15:33:45;102007.56;;;3.46;100.00
4346;BME280;2186;49.866;7.986;2023-02-14T15:36:17;102004.47;;;3.61;100.00
4346;BME280;2186;49.866;7.986;2023-02-14T15:38:46;101998.03;;;3.51;100.00